createdAt,value
2018-06-30T00:00:51.715Z,13.90
2018-06-30T00:03:20.637Z,16.77
2018-06-30T00:05:49.722Z,14.87
2018-06-30T00:08:18.825Z,13.90
2018-06-30T00:10:48.053Z,15.77
2018-06-30T00:13:17.123Z,16.57
2018-06-30T00:15:46.159Z,15.57
2018-06-30T00:18:15.151Z,15.60
2018-06-30T00:20:44.177Z,15.97
2018-06-30T00:23:13.142Z,15.90
2018-06-30T00:25:42.146Z,15.10
2018-06-30T00:28:11.146Z,15.50
2018-06-30T00:30:40.166Z,16.90
2018-06-30T00:33:09.124Z,16.67
2018-06-30T00:35:38.189Z,18.50
2018-06-30T00:38:07.176Z,17.37
2018-06-30T00:40:36.143Z,16.93
2018-06-30T00:43:05.372Z,16.87
2018-06-30T00:45:34.386Z,18.33
2018-06-30T00:48:03.327Z,18.97
2018-06-30T00:50:32.341Z,17.23
2018-06-30T00:53:01.387Z,19.00
2018-06-30T00:55:30.813Z,19.03
2018-06-30T00:57:59.854Z,19.43
2018-06-30T01:00:28.829Z,18.53
2018-06-30T01:02:57.799Z,22.40
2018-06-30T01:05:26.517Z,20.57
2018-06-30T01:07:55.654Z,20.70
2018-06-30T01:10:24.627Z,20.90
2018-06-30T01:12:53.617Z,20.50
2018-06-30T01:15:22.715Z,20.70
2018-06-30T01:17:51.752Z,20.83
2018-06-30T01:20:20.785Z,22.10
2018-06-30T01:22:49.832Z,22.53
2018-06-30T01:25:18.932Z,22.33
2018-06-30T01:27:47.899Z,23.23
2018-06-30T01:30:16.866Z,21.93
2018-06-30T01:32:45.870Z,21.60
2018-06-30T01:35:14.883Z,22.40
2018-06-30T01:37:43.876Z,21.37
2018-06-30T01:40:12.898Z,22.27
2018-06-30T01:42:41.652Z,24.40
2018-06-30T01:45:10.551Z,23.17
2018-06-30T01:47:39.534Z,22.70
2018-06-30T01:50:08.634Z,22.17
2018-06-30T01:52:37.786Z,23.27
2018-06-30T01:55:06.769Z,23.50
2018-06-30T01:57:35.741Z,23.93
2018-06-30T02:00:05.349Z,23.07
2018-06-30T02:02:34.305Z,22.67
2018-06-30T02:05:03.310Z,23.70
2018-06-30T02:07:32.290Z,23.20
2018-06-30T02:10:01.263Z,23.97
2018-06-30T02:12:30.263Z,22.17
2018-06-30T02:14:59.229Z,25.53
2018-06-30T02:17:28.230Z,24.30
2018-06-30T02:19:57.194Z,24.50
2018-06-30T02:22:26.244Z,24.60
2018-06-30T02:24:55.239Z,24.83
2018-06-30T02:27:24.223Z,24.87
2018-06-30T02:29:52.990Z,25.10
2018-06-30T02:32:21.918Z,25.93
2018-06-30T02:34:50.876Z,26.37
2018-06-30T02:37:19.833Z,25.37
2018-06-30T02:39:48.827Z,26.53
2018-06-30T02:42:17.841Z,27.70
2018-06-30T02:44:46.857Z,28.50
2018-06-30T02:47:15.773Z,26.43
2018-06-30T02:49:45.478Z,28.30
2018-06-30T02:52:14.465Z,29.93
2018-06-30T02:54:43.665Z,28.97
2018-06-30T02:57:12.594Z,27.30
2018-06-30T02:59:41.570Z,27.17
2018-06-30T03:02:10.567Z,27.47
2018-06-30T03:04:39.543Z,28.30
2018-06-30T03:07:08.523Z,30.03
2018-06-30T03:09:37.518Z,28.63
2018-06-30T03:12:06.509Z,29.93
2018-06-30T03:14:35.635Z,28.60
2018-06-30T03:17:04.634Z,28.97
2018-06-30T03:19:33.595Z,26.47
2018-06-30T03:22:02.598Z,27.80
2018-06-30T03:24:31.542Z,27.80
2018-06-30T03:27:00.520Z,29.70
2018-06-30T03:29:29.317Z,30.33
2018-06-30T03:31:58.159Z,29.23
2018-06-30T03:34:27.152Z,29.57
2018-06-30T03:36:56.113Z,29.73
2018-06-30T03:39:25.090Z,27.50
2018-06-30T03:41:54.138Z,28.93
2018-06-30T03:44:23.094Z,31.43
2018-06-30T03:46:52.143Z,29.40
2018-06-30T03:49:21.254Z,28.80
2018-06-30T03:51:49.998Z,31.00
2018-06-30T03:54:19.097Z,30.67
2018-06-30T03:56:48.062Z,31.50
2018-06-30T03:59:17.465Z,30.13
2018-06-30T04:01:46.727Z,31.07
2018-06-30T04:04:16.358Z,30.63
2018-06-30T04:06:45.324Z,27.70
2018-06-30T04:09:14.333Z,29.80
2018-06-30T04:11:43.435Z,29.90
2018-06-30T04:14:12.433Z,28.80
2018-06-30T04:16:41.474Z,31.07
2018-06-30T04:19:13.415Z,28.70
2018-06-30T04:21:43.929Z,27.97
2018-06-30T04:24:13.017Z,29.40
2018-06-30T04:26:42.960Z,30.37
2018-06-30T04:29:12.683Z,30.10
2018-06-30T04:31:41.676Z,28.10
2018-06-30T04:34:10.698Z,28.07
2018-06-30T04:36:39.778Z,27.53
2018-06-30T04:39:09.858Z,28.47
2018-06-30T04:41:38.858Z,27.73
2018-06-30T04:44:07.886Z,26.80
2018-06-30T04:46:36.884Z,26.50
2018-06-30T04:49:06.065Z,26.53
2018-06-30T04:51:35.030Z,26.37
2018-06-30T04:54:04.213Z,24.27
2018-06-30T04:56:33.359Z,23.43
2018-06-30T04:59:02.326Z,22.63
2018-06-30T05:01:31.257Z,21.30
2018-06-30T05:04:00.222Z,20.73
2018-06-30T05:06:29.218Z,21.80
2018-06-30T05:08:58.189Z,20.90
2018-06-30T05:11:27.193Z,19.17
2018-06-30T05:13:56.155Z,18.40
2018-06-30T05:16:25.073Z,18.87
2018-06-30T05:18:53.858Z,18.90
2018-06-30T05:21:22.905Z,16.90
2018-06-30T05:23:52.023Z,16.90
2018-06-30T05:26:21.152Z,15.10
2018-06-30T05:28:50.113Z,14.53
2018-06-30T05:31:24.787Z,14.07
2018-06-30T05:33:53.742Z,13.17
2018-06-30T05:36:22.686Z,12.37
2018-06-30T05:38:51.995Z,12.50
2018-06-30T05:41:20.939Z,11.17
2018-06-30T05:43:49.886Z,12.10
2018-06-30T05:46:18.881Z,12.03
2018-06-30T05:48:47.901Z,10.63
2018-06-30T05:51:16.887Z,11.43
2018-06-30T05:53:45.883Z,11.53
2018-06-30T05:56:15.788Z,11.90
2018-06-30T05:58:44.857Z,11.03
2018-06-30T06:01:13.849Z,10.23
2018-06-30T06:03:42.897Z,11.83
2018-06-30T06:06:11.922Z,10.63
2018-06-30T06:08:41.071Z,10.20
2018-06-30T06:11:10.105Z,10.17
2018-06-30T06:13:39.133Z,10.60
2018-06-30T06:16:08.065Z,9.30
2018-06-30T06:18:37.018Z,8.93
2018-06-30T06:21:06.092Z,8.33
2018-06-30T06:23:34.994Z,9.27
2018-06-30T06:26:03.740Z,8.30
2018-06-30T06:28:32.554Z,8.80
2018-06-30T06:31:01.512Z,8.00
2018-06-30T06:33:30.501Z,7.47
2018-06-30T06:35:59.504Z,7.30
2018-06-30T06:38:28.543Z,7.90
2018-06-30T06:40:57.523Z,7.43
2018-06-30T06:43:26.548Z,8.30
2018-06-30T06:45:56.255Z,7.87
2018-06-30T06:48:25.277Z,6.83
2018-06-30T06:50:54.474Z,6.77
2018-06-30T06:53:23.431Z,6.03
2018-06-30T06:55:52.422Z,7.17
2018-06-30T06:58:21.682Z,6.73
2018-06-30T07:00:50.688Z,6.20
2018-06-30T07:03:19.641Z,6.13
2018-06-30T07:05:48.655Z,6.20
2018-06-30T07:08:17.646Z,6.03
2018-06-30T07:10:46.622Z,5.77
2018-06-30T07:13:15.607Z,6.03
2018-06-30T07:15:44.577Z,6.70
2018-06-30T07:18:13.548Z,6.30
2018-06-30T07:20:43.055Z,5.93
2018-06-30T07:23:11.887Z,6.93
2018-06-30T07:25:40.701Z,6.00
2018-06-30T07:28:09.692Z,5.70
2018-06-30T07:30:38.781Z,6.13
2018-06-30T07:33:08.085Z,5.77
2018-06-30T07:35:37.021Z,6.40
2018-06-30T07:38:06.265Z,5.70
2018-06-30T07:40:35.196Z,5.87
2018-06-30T07:43:04.535Z,6.13
2018-06-30T07:45:33.658Z,5.80
2018-06-30T07:48:02.631Z,6.50
2018-06-30T07:50:31.608Z,5.70
2018-06-30T07:53:00.579Z,5.80
2018-06-30T07:55:29.625Z,5.30
2018-06-30T07:57:58.587Z,5.70
2018-06-30T08:00:27.776Z,5.50
2018-06-30T08:02:56.749Z,6.20
2018-06-30T08:05:25.705Z,5.80
2018-06-30T08:07:54.736Z,5.77
2018-06-30T08:10:23.672Z,5.20
2018-06-30T08:12:52.731Z,6.30
2018-06-30T08:15:21.724Z,5.13
2018-06-30T08:17:50.701Z,5.73
2018-06-30T08:20:19.713Z,5.70
2018-06-30T08:22:48.678Z,5.40
2018-06-30T08:25:17.783Z,5.50
2018-06-30T08:27:46.853Z,5.17
2018-06-30T08:30:15.814Z,5.80
2018-06-30T08:32:44.805Z,4.87
2018-06-30T08:35:13.719Z,4.93
2018-06-30T08:37:42.750Z,5.60
2018-06-30T08:40:11.691Z,4.77
2018-06-30T08:42:40.965Z,4.80
2018-06-30T08:45:09.908Z,5.00
2018-06-30T08:47:39.047Z,5.00
2018-06-30T08:50:08.002Z,4.83
2018-06-30T08:52:37.090Z,5.20
2018-06-30T08:55:06.117Z,4.50
2018-06-30T08:57:35.122Z,5.23
2018-06-30T09:00:04.989Z,4.50
2018-06-30T09:02:34.212Z,4.83
2018-06-30T09:05:03.192Z,5.03
2018-06-30T09:07:32.126Z,4.47
2018-06-30T09:10:01.469Z,4.87
2018-06-30T09:12:30.427Z,4.50
2018-06-30T09:14:59.447Z,3.90
2018-06-30T09:17:28.393Z,4.40
2018-06-30T09:19:57.645Z,4.30
2018-06-30T09:22:26.625Z,4.00
2018-06-30T09:24:55.598Z,4.30
2018-06-30T09:27:24.318Z,4.07
2018-06-30T09:29:53.341Z,4.60
2018-06-30T09:32:22.284Z,4.70
2018-06-30T09:34:51.247Z,4.37
2018-06-30T09:37:20.226Z,3.90
2018-06-30T09:39:49.209Z,4.10
2018-06-30T09:42:18.222Z,3.80
2018-06-30T09:44:47.280Z,3.87
2018-06-30T09:47:16.297Z,3.77
2018-06-30T09:49:45.270Z,3.40
2018-06-30T09:52:14.231Z,3.63
2018-06-30T09:54:43.175Z,3.47
2018-06-30T09:57:12.146Z,3.20
2018-06-30T09:59:41.108Z,3.63
2018-06-30T10:02:10.102Z,3.73
2018-06-30T10:04:39.957Z,3.43
2018-06-30T10:07:08.977Z,4.00
2018-06-30T10:09:38.187Z,3.47
2018-06-30T10:12:07.178Z,2.87
2018-06-30T10:14:36.141Z,3.70
2018-06-30T10:17:05.508Z,3.40
2018-06-30T10:19:34.512Z,3.17
2018-06-30T10:22:03.499Z,3.23
2018-06-30T10:24:32.213Z,2.90
2018-06-30T10:27:02.085Z,3.33
2018-06-30T10:29:31.170Z,3.77
2018-06-30T10:32:00.981Z,3.87
2018-06-30T10:34:29.977Z,3.47
2018-06-30T10:36:59.231Z,3.43
2018-06-30T10:39:28.344Z,3.30
2018-06-30T10:41:57.284Z,3.17
2018-06-30T10:44:26.045Z,3.47
2018-06-30T10:46:54.946Z,3.50
2018-06-30T10:49:23.907Z,3.40
2018-06-30T10:51:53.069Z,2.90
2018-06-30T10:54:22.114Z,3.03
2018-06-30T10:56:51.091Z,2.80
2018-06-30T10:59:20.222Z,3.30
2018-06-30T11:01:49.280Z,4.13
2018-06-30T11:04:18.174Z,3.00
2018-06-30T11:06:47.063Z,2.80
2018-06-30T11:09:16.394Z,2.73
2018-06-30T11:11:45.577Z,2.83
2018-06-30T11:14:14.269Z,2.43
2018-06-30T11:16:43.129Z,2.70
2018-06-30T11:19:12.209Z,2.57
2018-06-30T11:21:41.148Z,2.50
2018-06-30T11:24:10.164Z,2.37
2018-06-30T11:26:39.118Z,2.53
2018-06-30T11:29:07.800Z,2.67
2018-06-30T11:31:36.707Z,2.33
2018-06-30T11:34:05.837Z,2.50
2018-06-30T11:36:34.821Z,2.30
2018-06-30T11:39:04.198Z,2.13
2018-06-30T11:41:33.025Z,2.30
2018-06-30T11:44:01.997Z,2.13
2018-06-30T11:46:32.059Z,2.43
2018-06-30T11:49:01.001Z,2.17
2018-06-30T11:51:31.361Z,2.20
2018-06-30T11:54:00.979Z,2.03
2018-06-30T11:56:30.725Z,1.97
2018-06-30T11:59:00.679Z,1.80
2018-06-30T12:01:29.942Z,2.70
2018-06-30T12:03:59.042Z,1.73
2018-06-30T12:06:27.966Z,2.20
2018-06-30T12:08:57.015Z,1.80
2018-06-30T12:11:26.564Z,1.60
2018-06-30T12:13:55.633Z,1.97
2018-06-30T12:16:24.799Z,2.10
2018-06-30T12:18:54.070Z,1.60
2018-06-30T12:21:23.365Z,1.70
2018-06-30T12:23:52.629Z,2.10
2018-06-30T12:26:21.862Z,1.60
2018-06-30T12:28:51.093Z,1.57
2018-06-30T12:31:20.081Z,1.57
2018-06-30T12:33:49.069Z,1.70
2018-06-30T12:36:18.334Z,1.67
2018-06-30T12:38:47.578Z,1.70
2018-06-30T12:41:16.691Z,1.80
2018-06-30T12:43:45.626Z,1.30
2018-06-30T12:46:14.397Z,1.73
2018-06-30T12:48:43.474Z,1.60
2018-06-30T12:51:12.640Z,1.57
2018-06-30T12:53:41.583Z,1.33
2018-06-30T12:56:10.526Z,1.60
2018-06-30T12:58:39.492Z,1.50
2018-06-30T13:01:08.472Z,1.30
2018-06-30T13:03:37.423Z,1.47
2018-06-30T13:06:06.447Z,1.50
2018-06-30T13:08:35.958Z,1.50
2018-06-30T13:11:04.894Z,1.30
2018-06-30T13:13:33.893Z,1.30
2018-06-30T13:16:02.954Z,1.70
2018-06-30T13:18:31.916Z,1.57
2018-06-30T13:21:00.656Z,1.23
2018-06-30T13:23:29.616Z,1.30
2018-06-30T13:25:58.707Z,1.40
2018-06-30T13:28:27.649Z,1.40
2018-06-30T13:30:56.645Z,1.53
2018-06-30T13:33:25.730Z,1.40
2018-06-30T13:35:54.650Z,1.50
2018-06-30T13:38:23.409Z,1.47
2018-06-30T13:40:52.371Z,1.20
2018-06-30T13:43:21.410Z,1.10
2018-06-30T13:45:50.025Z,1.43
2018-06-30T13:48:18.982Z,1.20
2018-06-30T13:50:47.954Z,1.00
2018-06-30T13:53:16.958Z,1.20
2018-06-30T13:55:45.913Z,1.10
2018-06-30T13:58:14.956Z,1.30
2018-06-30T14:00:43.909Z,1.23
2018-06-30T14:03:12.882Z,1.20
2018-06-30T14:05:41.884Z,1.13
2018-06-30T14:08:10.841Z,1.10
2018-06-30T14:10:39.809Z,1.37
2018-06-30T14:13:08.804Z,1.20
2018-06-30T14:15:37.857Z,1.20
2018-06-30T14:18:07.054Z,1.87
2018-06-30T14:20:36.042Z,2.60
2018-06-30T14:23:05.103Z,1.20
2018-06-30T14:25:34.078Z,1.83
2018-06-30T14:28:03.013Z,1.20
2018-06-30T14:30:32.037Z,1.80
2018-06-30T14:33:00.998Z,1.10
2018-06-30T14:35:29.978Z,1.10
2018-06-30T14:37:58.915Z,1.20
2018-06-30T14:40:27.874Z,1.30
2018-06-30T14:42:56.862Z,4.10
2018-06-30T14:45:25.782Z,1.60
2018-06-30T14:47:54.748Z,1.40
2018-06-30T14:50:23.674Z,2.03
2018-06-30T14:52:52.645Z,1.10
2018-06-30T14:55:21.607Z,1.20
2018-06-30T14:57:50.550Z,1.30
2018-06-30T15:00:19.481Z,1.20
2018-06-30T15:02:48.466Z,1.10
2018-06-30T15:05:17.497Z,1.10
2018-06-30T15:07:46.232Z,1.10
2018-06-30T15:10:15.086Z,1.10
2018-06-30T15:12:44.443Z,1.10
2018-06-30T15:15:13.441Z,1.10
2018-06-30T15:17:42.393Z,1.10
2018-06-30T15:20:11.413Z,1.13
2018-06-30T15:22:40.391Z,1.00
2018-06-30T15:25:09.334Z,1.20
2018-06-30T15:27:38.294Z,1.10
2018-06-30T15:30:07.285Z,1.40
2018-06-30T15:32:36.257Z,1.10
2018-06-30T15:35:05.400Z,1.40
2018-06-30T15:37:34.188Z,1.30
2018-06-30T15:40:03.062Z,1.40
2018-06-30T15:42:32.251Z,1.17
2018-06-30T15:45:01.239Z,1.20
2018-06-30T15:47:30.240Z,1.00
2018-06-30T15:49:59.192Z,1.37
2018-06-30T15:52:28.194Z,0.93
2018-06-30T15:54:57.249Z,1.27
2018-06-30T15:57:26.202Z,1.30
2018-06-30T15:59:55.174Z,1.23
2018-06-30T16:02:24.123Z,1.30
2018-06-30T16:04:53.121Z,1.13
2018-06-30T16:07:22.089Z,1.17
2018-06-30T16:09:51.056Z,1.20
2018-06-30T16:12:20.013Z,1.27
2018-06-30T16:14:49.071Z,1.30
2018-06-30T16:17:18.091Z,1.37
2018-06-30T16:19:47.068Z,1.43
2018-06-30T16:22:16.218Z,1.20
2018-06-30T16:24:45.161Z,1.30
2018-06-30T16:27:14.170Z,1.17
2018-06-30T16:29:43.217Z,1.10
2018-06-30T16:32:12.166Z,1.10
2018-06-30T16:34:41.163Z,0.90
2018-06-30T16:37:10.156Z,1.10
2018-06-30T16:39:39.162Z,1.07
2018-06-30T16:42:08.157Z,1.20
2018-06-30T16:44:37.168Z,1.13
2018-06-30T16:47:06.209Z,1.30
2018-06-30T16:49:35.185Z,1.20
2018-06-30T16:52:04.187Z,1.20
2018-06-30T16:54:33.244Z,1.47
2018-06-30T16:57:02.486Z,1.20
2018-06-30T16:59:31.672Z,1.20
2018-06-30T17:02:00.885Z,1.37
2018-06-30T17:04:29.854Z,1.23
2018-06-30T17:06:59.052Z,1.57
2018-06-30T17:09:28.399Z,1.40
2018-06-30T17:11:57.484Z,1.13
2018-06-30T17:14:26.710Z,1.27
2018-06-30T17:16:56.099Z,1.20
2018-06-30T17:19:25.158Z,1.30
2018-06-30T17:21:54.329Z,1.37
2018-06-30T17:24:23.393Z,1.20
2018-06-30T17:26:52.394Z,1.47
2018-06-30T17:29:21.433Z,1.20
2018-06-30T17:31:50.433Z,1.20
2018-06-30T17:34:19.443Z,1.20
2018-06-30T17:36:48.154Z,1.20
2018-06-30T17:39:17.044Z,1.43
2018-06-30T17:41:45.601Z,1.10
2018-06-30T17:44:14.216Z,1.40
2018-06-30T17:46:43.042Z,1.47
2018-06-30T17:49:12.032Z,1.20
2018-06-30T17:51:41.079Z,1.40
2018-06-30T17:54:10.096Z,1.23
2018-06-30T17:56:39.141Z,1.50
2018-06-30T17:59:08.402Z,1.27
2018-06-30T18:01:37.751Z,1.30
2018-06-30T18:04:06.733Z,1.77
2018-06-30T18:06:35.696Z,1.40
2018-06-30T18:09:07.601Z,1.50
2018-06-30T18:11:36.557Z,1.20
2018-06-30T18:14:05.700Z,1.20
2018-06-30T18:16:34.622Z,1.20
2018-06-30T18:19:03.706Z,1.23
2018-06-30T18:21:32.687Z,1.20
2018-06-30T18:24:01.658Z,1.20
2018-06-30T18:26:30.845Z,1.20
2018-06-30T18:28:59.827Z,1.27
2018-06-30T18:31:29.538Z,1.50
2018-06-30T18:33:58.473Z,1.30
2018-06-30T18:36:27.457Z,1.37
2018-06-30T18:38:56.430Z,1.40
2018-06-30T18:41:25.413Z,1.90
2018-06-30T18:43:54.418Z,1.47
2018-06-30T18:46:23.430Z,1.57
2018-06-30T18:48:52.417Z,1.70
2018-06-30T18:51:21.425Z,1.40
2018-06-30T18:53:50.380Z,1.70
2018-06-30T18:56:19.539Z,1.20
2018-06-30T18:58:48.509Z,1.40
2018-06-30T19:01:17.498Z,1.50
2018-06-30T19:03:46.466Z,1.67
2018-06-30T19:06:15.412Z,1.27
2018-06-30T19:08:45.430Z,1.30
2018-06-30T19:11:14.412Z,1.40
2018-06-30T19:13:43.363Z,1.60
2018-06-30T19:16:12.417Z,1.60
2018-06-30T19:18:41.382Z,1.33
2018-06-30T19:21:10.583Z,1.30
2018-06-30T19:23:39.439Z,1.20
2018-06-30T19:26:09.044Z,1.33
2018-06-30T19:28:38.197Z,1.80
2018-06-30T19:31:07.145Z,1.50
2018-06-30T19:33:36.012Z,1.33
2018-06-30T19:36:05.041Z,1.40
2018-06-30T19:38:33.989Z,1.33
2018-06-30T19:41:03.030Z,1.20
2018-06-30T19:43:31.988Z,1.50
2018-06-30T19:46:00.970Z,1.50
2018-06-30T19:48:30.180Z,1.50
2018-06-30T19:50:59.744Z,1.30
2018-06-30T19:53:28.702Z,1.73
2018-06-30T19:55:57.817Z,1.10
2018-06-30T19:58:26.681Z,1.40
2018-06-30T20:00:55.432Z,1.20
2018-06-30T20:03:24.346Z,1.20
2018-06-30T20:05:53.296Z,1.40
2018-06-30T20:08:22.224Z,1.20
2018-06-30T20:10:51.248Z,1.30
2018-06-30T20:13:20.170Z,1.30
2018-06-30T20:15:49.165Z,1.57
2018-06-30T20:18:18.144Z,1.50
2018-06-30T20:20:47.174Z,1.30
2018-06-30T20:23:16.096Z,1.47
2018-06-30T20:25:44.836Z,1.37
2018-06-30T20:28:13.634Z,1.43
2018-06-30T20:30:42.636Z,1.80
2018-06-30T20:33:11.647Z,1.93
2018-06-30T20:35:40.598Z,1.40
2018-06-30T20:38:09.610Z,1.23
2018-06-30T20:40:38.577Z,1.50
2018-06-30T20:43:07.554Z,1.70
2018-06-30T20:45:36.520Z,1.73
2018-06-30T20:48:05.520Z,1.60
2018-06-30T20:50:34.510Z,1.30
2018-06-30T20:53:03.479Z,1.60
2018-06-30T20:55:32.674Z,1.63
2018-06-30T20:58:01.426Z,1.50
2018-06-30T21:00:30.271Z,1.87
2018-06-30T21:02:59.234Z,1.87
2018-06-30T21:05:28.192Z,1.77
2018-06-30T21:07:57.325Z,1.63
2018-06-30T21:10:26.349Z,1.50
2018-06-30T21:12:55.311Z,1.80
2018-06-30T21:15:24.285Z,1.60
2018-06-30T21:17:53.454Z,1.47
2018-06-30T21:20:22.261Z,1.50
2018-06-30T21:22:51.345Z,1.60
2018-06-30T21:25:20.616Z,1.97
2018-06-30T21:27:49.576Z,1.60
2018-06-30T21:30:18.661Z,1.50
2018-06-30T21:32:47.726Z,2.00
2018-06-30T21:35:16.725Z,1.63
2018-06-30T21:37:45.439Z,1.33
2018-06-30T21:40:14.553Z,1.70
2018-06-30T21:42:43.777Z,1.80
2018-06-30T21:45:12.746Z,1.77
2018-06-30T21:47:41.769Z,1.80
2018-06-30T21:50:10.723Z,1.80
2018-06-30T21:52:39.694Z,1.63
2018-06-30T21:55:08.753Z,1.80
2018-06-30T21:57:37.694Z,1.87
2018-06-30T22:00:10.073Z,1.70
2018-06-30T22:02:39.109Z,1.70
2018-06-30T22:05:08.269Z,1.93
2018-06-30T22:07:37.295Z,1.80
2018-06-30T22:10:07.158Z,1.60
2018-06-30T22:12:36.271Z,1.90
2018-06-30T22:15:05.657Z,2.17
2018-06-30T22:17:34.682Z,2.03
2018-06-30T22:20:03.674Z,2.00
2018-06-30T22:22:32.742Z,1.90
2018-06-30T22:25:01.769Z,1.73
2018-06-30T22:27:30.694Z,2.20
2018-06-30T22:29:59.741Z,1.90
2018-06-30T22:32:28.680Z,1.90
2018-06-30T22:34:57.622Z,1.77
2018-06-30T22:37:26.566Z,1.93
2018-06-30T22:40:07.219Z,2.00
2018-06-30T22:42:36.175Z,1.90
2018-06-30T22:45:05.803Z,1.60
2018-06-30T22:47:34.778Z,1.70
2018-06-30T22:50:03.743Z,1.70
2018-06-30T22:52:32.761Z,2.13
2018-06-30T22:55:01.959Z,1.87
2018-06-30T22:57:30.896Z,2.17
2018-06-30T22:59:59.875Z,2.00
2018-06-30T23:02:28.826Z,2.07
2018-06-30T23:04:57.777Z,1.87
2018-06-30T23:07:26.770Z,2.20
2018-06-30T23:09:55.806Z,2.43
2018-06-30T23:12:24.769Z,2.03
2018-06-30T23:14:53.694Z,1.80
2018-06-30T23:17:22.638Z,1.93
2018-06-30T23:19:51.991Z,1.77
2018-06-30T23:22:59.490Z,1.80
2018-06-30T23:25:30.704Z,1.90
2018-06-30T23:28:00.092Z,1.77
2018-06-30T23:30:29.676Z,1.60
2018-06-30T23:32:58.681Z,1.70
2018-06-30T23:35:28.776Z,1.80
2018-06-30T23:37:58.724Z,2.10
2018-06-30T23:40:27.721Z,1.87
2018-06-30T23:42:56.637Z,1.70
2018-06-30T23:45:25.585Z,1.70
2018-06-30T23:47:54.755Z,2.20
2018-06-30T23:50:23.737Z,1.90
2018-06-30T23:52:52.797Z,1.90
2018-06-30T23:55:21.748Z,1.50
2018-06-30T23:57:50.722Z,2.00
